sensor_id;sensor_type;location;lat;lon;timestamp;temperature;humidity
57390;DHT22;43217;52.694;6.214;2022-10-16T00:00:54;12.80;99.90
57390;DHT22;43217;52.694;6.214;2022-10-16T00:03:19;12.70;99.90
57390;DHT22;43217;52.694;6.214;2022-10-16T00:05:45;12.70;99.90
57390;DHT22;43217;52.694;6.214;2022-10-16T00:08:25;12.70;99.90
57390;DHT22;43217;52.694;6.214;2022-10-16T00:10:50;12.70;99.90
57390;DHT22;43217;52.694;6.214;2022-10-16T00:13:16;12.70;99.90
57390;DHT22;43217;52.694;6.214;2022-10-16T00:15:43;12.70;99.90
57390;DHT22;43217;52.694;6.214;2022-10-16T00:18:09;12.70;99.90
57390;DHT22;43217;52.694;6.214;2022-10-16T00:20:35;12.70;99.90
57390;DHT22;43217;52.694;6.214;2022-10-16T00:23:03;12.70;99.90
57390;DHT22;43217;52.694;6.214;2022-10-16T00:25:29;12.70;99.90
57390;DHT22;43217;52.694;6.214;2022-10-16T00:27:54;12.70;99.90
57390;DHT22;43217;52.694;6.214;2022-10-16T00:30:20;12.70;99.90
57390;DHT22;43217;52.694;6.214;2022-10-16T00:32:46;12.70;99.90
57390;DHT22;43217;52.694;6.214;2022-10-16T00:35:14;12.70;99.90
57390;DHT22;43217;52.694;6.214;2022-10-16T00:37:40;12.70;99.90
57390;DHT22;43217;52.694;6.214;2022-10-16T00:40:06;12.70;99.90
57390;DHT22;43217;52.694;6.214;2022-10-16T00:42:31;12.70;99.90
57390;DHT22;43217;52.694;6.214;2022-10-16T00:44:57;12.70;99.90
57390;DHT22;43217;52.694;6.214;2022-10-16T00:47:27;12.80;99.90
57390;DHT22;43217;52.694;6.214;2022-10-16T00:50:22;12.70;99.90
57390;DHT22;43217;52.694;6.214;2022-10-16T00:52:46;12.70;99.90
57390;DHT22;43217;52.694;6.214;2022-10-16T00:55:17;12.70;99.90
57390;DHT22;43217;52.694;6.214;2022-10-16T00:57:44;12.80;99.90
57390;DHT22;43217;52.694;6.214;2022-10-16T01:00:16;12.80;99.90
57390;DHT22;43217;52.694;6.214;2022-10-16T01:02:42;12.80;99.90
57390;DHT22;43217;52.694;6.214;2022-10-16T01:05:08;12.80;99.90
57390;DHT22;43217;52.694;6.214;2022-10-16T01:07:58;12.80;99.90
57390;DHT22;43217;52.694;6.214;2022-10-16T01:13:27;12.80;99.90
57390;DHT22;43217;52.694;6.214;2022-10-16T01:16:07;12.80;99.90
57390;DHT22;43217;52.694;6.214;2022-10-16T01:18:43;12.80;99.90
57390;DHT22;43217;52.694;6.214;2022-10-16T01:21:26;12.70;99.90
57390;DHT22;43217;52.694;6.214;2022-10-16T01:27:12;12.70;99.90
57390;DHT22;43217;52.694;6.214;2022-10-16T01:29:59;12.70;99.90
57390;DHT22;43217;52.694;6.214;2022-10-16T01:32:55;12.70;99.90
57390;DHT22;43217;52.694;6.214;2022-10-16T01:35:30;12.70;99.90
57390;DHT22;43217;52.694;6.214;2022-10-16T01:40:52;12.70;99.90
57390;DHT22;43217;52.694;6.214;2022-10-16T01:43:30;12.70;99.90
57390;DHT22;43217;52.694;6.214;2022-10-16T01:45:57;12.80;99.90
57390;DHT22;43217;52.694;6.214;2022-10-16T01:48:24;12.80;99.90
57390;DHT22;43217;52.694;6.214;2022-10-16T01:51:10;12.70;99.90
57390;DHT22;43217;52.694;6.214;2022-10-16T01:53:37;12.70;99.90
57390;DHT22;43217;52.694;6.214;2022-10-16T01:56:08;12.70;99.90
57390;DHT22;43217;52.694;6.214;2022-10-16T01:58:37;12.70;99.90
57390;DHT22;43217;52.694;6.214;2022-10-16T02:01:07;12.70;99.90
57390;DHT22;43217;52.694;6.214;2022-10-16T02:03:35;12.70;99.90
57390;DHT22;43217;52.694;6.214;2022-10-16T02:06:02;12.70;99.90
57390;DHT22;43217;52.694;6.214;2022-10-16T02:08:28;12.70;99.90
57390;DHT22;43217;52.694;6.214;2022-10-16T02:10:56;12.70;99.90
57390;DHT22;43217;52.694;6.214;2022-10-16T02:13:26;12.70;99.90
57390;DHT22;43217;52.694;6.214;2022-10-16T02:15:58;12.70;99.90
57390;DHT22;43217;52.694;6.214;2022-10-16T02:18:24;12.80;99.90
57390;DHT22;43217;52.694;6.214;2022-10-16T02:21:23;12.80;99.90
57390;DHT22;43217;52.694;6.214;2022-10-16T02:24:03;12.80;99.90
57390;DHT22;43217;52.694;6.214;2022-10-16T02:26:40;12.70;99.90
57390;DHT22;43217;52.694;6.214;2022-10-16T02:29:12;12.70;99.90
57390;DHT22;43217;52.694;6.214;2022-10-16T02:31:43;12.80;99.90
57390;DHT22;43217;52.694;6.214;2022-10-16T02:34:13;12.80;99.90
57390;DHT22;43217;52.694;6.214;2022-10-16T02:36:40;12.80;99.90
57390;DHT22;43217;52.694;6.214;2022-10-16T02:39:08;12.80;99.90
57390;DHT22;43217;52.694;6.214;2022-10-16T02:41:35;12.80;99.90
57390;DHT22;43217;52.694;6.214;2022-10-16T02:44:00;12.80;99.90
57390;DHT22;43217;52.694;6.214;2022-10-16T02:46:26;12.80;99.90
57390;DHT22;43217;52.694;6.214;2022-10-16T02:48:52;12.80;99.90
57390;DHT22;43217;52.694;6.214;2022-10-16T02:51:33;12.80;99.90
57390;DHT22;43217;52.694;6.214;2022-10-16T02:53:58;12.80;99.90
57390;DHT22;43217;52.694;6.214;2022-10-16T02:56:42;12.80;99.90
57390;DHT22;43217;52.694;6.214;2022-10-16T02:59:08;12.80;99.90
57390;DHT22;43217;52.694;6.214;2022-10-16T03:01:34;12.80;99.90
57390;DHT22;43217;52.694;6.214;2022-10-16T03:03:59;12.80;99.90
57390;DHT22;43217;52.694;6.214;2022-10-16T03:06:25;12.80;99.90
57390;DHT22;43217;52.694;6.214;2022-10-16T03:08:50;12.80;99.90
57390;DHT22;43217;52.694;6.214;2022-10-16T03:11:16;12.80;99.90
57390;DHT22;43217;52.694;6.214;2022-10-16T03:13:41;12.80;99.90
57390;DHT22;43217;52.694;6.214;2022-10-16T03:16:07;12.80;99.90
57390;DHT22;43217;52.694;6.214;2022-10-16T03:18:33;12.80;99.90
57390;DHT22;43217;52.694;6.214;2022-10-16T03:20:58;12.80;99.90
57390;DHT22;43217;52.694;6.214;2022-10-16T03:23:24;12.90;99.90
57390;DHT22;43217;52.694;6.214;2022-10-16T03:25:50;12.80;99.90
57390;DHT22;43217;52.694;6.214;2022-10-16T03:28:15;12.80;99.90
57390;DHT22;43217;52.694;6.214;2022-10-16T03:30:42;12.80;99.90
57390;DHT22;43217;52.694;6.214;2022-10-16T03:33:07;12.80;99.90
57390;DHT22;43217;52.694;6.214;2022-10-16T03:35:33;12.80;99.90
57390;DHT22;43217;52.694;6.214;2022-10-16T03:37:59;12.80;99.90
57390;DHT22;43217;52.694;6.214;2022-10-16T03:40:24;12.70;99.90
57390;DHT22;43217;52.694;6.214;2022-10-16T03:42:50;12.70;99.90
57390;DHT22;43217;52.694;6.214;2022-10-16T03:45:15;12.70;99.90
57390;DHT22;43217;52.694;6.214;2022-10-16T03:47:41;12.70;99.90
57390;DHT22;43217;52.694;6.214;2022-10-16T03:50:07;12.60;99.90
57390;DHT22;43217;52.694;6.214;2022-10-16T03:52:33;12.60;99.90
57390;DHT22;43217;52.694;6.214;2022-10-16T03:54:59;12.50;99.90
57390;DHT22;43217;52.694;6.214;2022-10-16T03:57:24;12.50;99.90
57390;DHT22;43217;52.694;6.214;2022-10-16T03:59:50;12.50;99.90
57390;DHT22;43217;52.694;6.214;2022-10-16T04:02:16;12.40;99.90
57390;DHT22;43217;52.694;6.214;2022-10-16T04:04:52;12.40;99.90
57390;DHT22;43217;52.694;6.214;2022-10-16T04:07:18;12.40;99.90
57390;DHT22;43217;52.694;6.214;2022-10-16T04:09:45;12.30;99.90
57390;DHT22;43217;52.694;6.214;2022-10-16T04:12:11;12.30;99.90
57390;DHT22;43217;52.694;6.214;2022-10-16T04:14:37;12.30;99.90
57390;DHT22;43217;52.694;6.214;2022-10-16T04:17:02;12.30;99.90
57390;DHT22;43217;52.694;6.214;2022-10-16T04:19:28;12.30;99.90
57390;DHT22;43217;52.694;6.214;2022-10-16T04:21:53;12.20;99.90
57390;DHT22;43217;52.694;6.214;2022-10-16T04:24:21;12.20;99.90
57390;DHT22;43217;52.694;6.214;2022-10-16T04:26:46;12.20;99.90
57390;DHT22;43217;52.694;6.214;2022-10-16T04:29:12;12.20;99.90
57390;DHT22;43217;52.694;6.214;2022-10-16T04:31:38;12.20;99.90
57390;DHT22;43217;52.694;6.214;2022-10-16T04:34:03;12.20;99.90
57390;DHT22;43217;52.694;6.214;2022-10-16T04:36:29;12.20;99.90
57390;DHT22;43217;52.694;6.214;2022-10-16T04:38:55;12.30;99.90
57390;DHT22;43217;52.694;6.214;2022-10-16T04:41:20;12.30;99.90
57390;DHT22;43217;52.694;6.214;2022-10-16T04:43:46;12.30;99.90
57390;DHT22;43217;52.694;6.214;2022-10-16T04:46:12;12.40;99.90
57390;DHT22;43217;52.694;6.214;2022-10-16T04:48:38;12.30;99.90
57390;DHT22;43217;52.694;6.214;2022-10-16T04:51:04;12.40;99.90
57390;DHT22;43217;52.694;6.214;2022-10-16T04:53:29;12.40;99.90
57390;DHT22;43217;52.694;6.214;2022-10-16T04:55:55;12.40;99.90
57390;DHT22;43217;52.694;6.214;2022-10-16T04:58:22;12.40;99.90
57390;DHT22;43217;52.694;6.214;2022-10-16T05:00:48;12.40;99.90
57390;DHT22;43217;52.694;6.214;2022-10-16T05:03:13;12.40;99.90
57390;DHT22;43217;52.694;6.214;2022-10-16T05:05:45;12.40;99.90
57390;DHT22;43217;52.694;6.214;2022-10-16T05:08:15;12.40;99.90
57390;DHT22;43217;52.694;6.214;2022-10-16T05:10:44;12.30;99.90
57390;DHT22;43217;52.694;6.214;2022-10-16T05:13:10;12.40;99.90
57390;DHT22;43217;52.694;6.214;2022-10-16T05:15:47;12.30;99.90
57390;DHT22;43217;52.694;6.214;2022-10-16T05:18:14;12.30;99.90
57390;DHT22;43217;52.694;6.214;2022-10-16T05:20:40;12.30;99.90
57390;DHT22;43217;52.694;6.214;2022-10-16T05:23:06;12.30;99.90
57390;DHT22;43217;52.694;6.214;2022-10-16T05:25:31;12.40;99.90
57390;DHT22;43217;52.694;6.214;2022-10-16T05:27:57;12.40;99.90
57390;DHT22;43217;52.694;6.214;2022-10-16T05:30:23;12.40;99.90
57390;DHT22;43217;52.694;6.214;2022-10-16T05:32:49;12.40;99.90
57390;DHT22;43217;52.694;6.214;2022-10-16T05:35:17;12.40;99.90
57390;DHT22;43217;52.694;6.214;2022-10-16T05:37:43;12.40;99.90
57390;DHT22;43217;52.694;6.214;2022-10-16T05:40:09;12.30;99.90
57390;DHT22;43217;52.694;6.214;2022-10-16T05:42:35;12.30;99.90
57390;DHT22;43217;52.694;6.214;2022-10-16T05:45:01;12.30;99.90
57390;DHT22;43217;52.694;6.214;2022-10-16T05:47:27;12.30;99.90
57390;DHT22;43217;52.694;6.214;2022-10-16T05:49:53;12.30;99.90
57390;DHT22;43217;52.694;6.214;2022-10-16T05:52:18;12.30;99.90
57390;DHT22;43217;52.694;6.214;2022-10-16T05:55:02;12.30;99.90
57390;DHT22;43217;52.694;6.214;2022-10-16T05:57:27;12.30;99.90
57390;DHT22;43217;52.694;6.214;2022-10-16T05:59:58;12.30;99.90
57390;DHT22;43217;52.694;6.214;2022-10-16T06:02:24;12.30;99.90
57390;DHT22;43217;52.694;6.214;2022-10-16T06:04:54;12.30;99.90
57390;DHT22;43217;52.694;6.214;2022-10-16T06:07:20;12.30;99.90
57390;DHT22;43217;52.694;6.214;2022-10-16T06:09:49;12.30;99.90
57390;DHT22;43217;52.694;6.214;2022-10-16T06:12:16;12.40;99.90
57390;DHT22;43217;52.694;6.214;2022-10-16T06:14:41;12.40;99.90
57390;DHT22;43217;52.694;6.214;2022-10-16T06:17:07;12.40;99.90
57390;DHT22;43217;52.694;6.214;2022-10-16T06:19:33;12.40;99.90
57390;DHT22;43217;52.694;6.214;2022-10-16T06:21:58;12.50;99.90
57390;DHT22;43217;52.694;6.214;2022-10-16T06:24:25;12.50;99.90
57390;DHT22;43217;52.694;6.214;2022-10-16T06:26:50;12.50;99.90
57390;DHT22;43217;52.694;6.214;2022-10-16T06:29:16;12.50;99.90
57390;DHT22;43217;52.694;6.214;2022-10-16T06:31:42;12.50;99.90
57390;DHT22;43217;52.694;6.214;2022-10-16T06:34:10;12.50;99.90
57390;DHT22;43217;52.694;6.214;2022-10-16T06:36:39;12.60;99.90
57390;DHT22;43217;52.694;6.214;2022-10-16T06:39:05;12.60;99.90
57390;DHT22;43217;52.694;6.214;2022-10-16T06:41:33;12.60;99.90
57390;DHT22;43217;52.694;6.214;2022-10-16T06:43:59;12.70;99.90
57390;DHT22;43217;52.694;6.214;2022-10-16T06:46:25;12.70;99.90
57390;DHT22;43217;52.694;6.214;2022-10-16T06:49:00;12.70;99.90
57390;DHT22;43217;52.694;6.214;2022-10-16T06:51:26;12.80;99.90
57390;DHT22;43217;52.694;6.214;2022-10-16T06:53:53;12.80;99.90
57390;DHT22;43217;52.694;6.214;2022-10-16T06:56:20;12.80;99.90
57390;DHT22;43217;52.694;6.214;2022-10-16T06:58:46;12.80;99.90
57390;DHT22;43217;52.694;6.214;2022-10-16T07:01:13;12.80;99.90
57390;DHT22;43217;52.694;6.214;2022-10-16T07:03:40;12.90;99.90
57390;DHT22;43217;52.694;6.214;2022-10-16T07:06:09;12.90;99.90
57390;DHT22;43217;52.694;6.214;2022-10-16T07:08:37;13.00;99.90
57390;DHT22;43217;52.694;6.214;2022-10-16T07:11:06;13.00;99.90
57390;DHT22;43217;52.694;6.214;2022-10-16T07:13:39;13.00;99.90
57390;DHT22;43217;52.694;6.214;2022-10-16T07:16:12;13.10;99.90
57390;DHT22;43217;52.694;6.214;2022-10-16T07:18:38;13.10;99.90
57390;DHT22;43217;52.694;6.214;2022-10-16T07:21:10;13.20;99.90
57390;DHT22;43217;52.694;6.214;2022-10-16T07:23:37;13.20;99.90
57390;DHT22;43217;52.694;6.214;2022-10-16T07:26:03;13.20;99.90
57390;DHT22;43217;52.694;6.214;2022-10-16T07:28:29;13.30;99.90
57390;DHT22;43217;52.694;6.214;2022-10-16T07:30:59;13.30;99.90
57390;DHT22;43217;52.694;6.214;2022-10-16T07:33:25;13.30;99.90
57390;DHT22;43217;52.694;6.214;2022-10-16T07:35:54;13.30;99.90
57390;DHT22;43217;52.694;6.214;2022-10-16T07:38:21;13.40;99.90
57390;DHT22;43217;52.694;6.214;2022-10-16T07:40:56;13.40;99.90
57390;DHT22;43217;52.694;6.214;2022-10-16T07:43:22;13.40;99.90
57390;DHT22;43217;52.694;6.214;2022-10-16T07:45:52;13.40;99.90
57390;DHT22;43217;52.694;6.214;2022-10-16T07:48:18;13.40;99.90
57390;DHT22;43217;52.694;6.214;2022-10-16T07:50:45;13.50;99.90
57390;DHT22;43217;52.694;6.214;2022-10-16T07:53:12;13.50;99.90
57390;DHT22;43217;52.694;6.214;2022-10-16T07:55:39;13.50;99.90
57390;DHT22;43217;52.694;6.214;2022-10-16T07:58:05;13.60;99.90
57390;DHT22;43217;52.694;6.214;2022-10-16T08:00:31;13.60;99.90
57390;DHT22;43217;52.694;6.214;2022-10-16T08:02:57;13.70;99.90
57390;DHT22;43217;52.694;6.214;2022-10-16T08:05:31;13.70;99.90
57390;DHT22;43217;52.694;6.214;2022-10-16T08:07:57;13.80;99.90
57390;DHT22;43217;52.694;6.214;2022-10-16T08:10:25;13.80;99.90
57390;DHT22;43217;52.694;6.214;2022-10-16T08:12:52;13.90;99.90
57390;DHT22;43217;52.694;6.214;2022-10-16T08:15:18;13.90;99.90
57390;DHT22;43217;52.694;6.214;2022-10-16T08:17:44;14.00;99.90
57390;DHT22;43217;52.694;6.214;2022-10-16T08:20:21;14.10;99.90
57390;DHT22;43217;52.694;6.214;2022-10-16T08:22:47;14.10;99.90
57390;DHT22;43217;52.694;6.214;2022-10-16T08:25:25;14.10;99.90
57390;DHT22;43217;52.694;6.214;2022-10-16T08:27:51;14.20;99.90
57390;DHT22;43217;52.694;6.214;2022-10-16T08:30:19;14.20;99.90
57390;DHT22;43217;52.694;6.214;2022-10-16T08:32:44;14.20;99.90
57390;DHT22;43217;52.694;6.214;2022-10-16T08:35:13;14.30;99.90
57390;DHT22;43217;52.694;6.214;2022-10-16T08:37:39;14.30;99.90
57390;DHT22;43217;52.694;6.214;2022-10-16T08:40:07;14.30;99.90
57390;DHT22;43217;52.694;6.214;2022-10-16T08:46:15;14.30;99.90
57390;DHT22;43217;52.694;6.214;2022-10-16T08:48:52;14.20;99.90
57390;DHT22;43217;52.694;6.214;2022-10-16T08:51:30;14.20;99.90
57390;DHT22;43217;52.694;6.214;2022-10-16T08:53:59;14.30;99.90
57390;DHT22;43217;52.694;6.214;2022-10-16T08:56:26;14.30;99.90
57390;DHT22;43217;52.694;6.214;2022-10-16T08:58:53;14.30;99.90
57390;DHT22;43217;52.694;6.214;2022-10-16T09:01:21;14.30;99.90
57390;DHT22;43217;52.694;6.214;2022-10-16T09:06:47;14.50;99.90
57390;DHT22;43217;52.694;6.214;2022-10-16T09:14:44;14.60;99.90
57390;DHT22;43217;52.694;6.214;2022-10-16T09:19:43;14.70;99.90
57390;DHT22;43217;52.694;6.214;2022-10-16T09:22:15;14.80;99.90
57390;DHT22;43217;52.694;6.214;2022-10-16T09:24:41;14.90;99.90
57390;DHT22;43217;52.694;6.214;2022-10-16T09:27:11;14.90;99.90
57390;DHT22;43217;52.694;6.214;2022-10-16T09:29:37;15.00;99.90
57390;DHT22;43217;52.694;6.214;2022-10-16T09:32:11;15.00;99.90
57390;DHT22;43217;52.694;6.214;2022-10-16T09:34:51;15.10;99.90
57390;DHT22;43217;52.694;6.214;2022-10-16T09:37:19;15.10;99.90
57390;DHT22;43217;52.694;6.214;2022-10-16T09:39:52;15.20;99.90
57390;DHT22;43217;52.694;6.214;2022-10-16T09:42:22;15.30;99.90
57390;DHT22;43217;52.694;6.214;2022-10-16T09:44:53;15.30;99.90
57390;DHT22;43217;52.694;6.214;2022-10-16T09:47:27;15.40;99.90
57390;DHT22;43217;52.694;6.214;2022-10-16T09:49:56;15.50;99.90
57390;DHT22;43217;52.694;6.214;2022-10-16T09:52:23;15.60;99.90
57390;DHT22;43217;52.694;6.214;2022-10-16T09:55:09;15.60;99.90
57390;DHT22;43217;52.694;6.214;2022-10-16T09:57:51;15.70;99.90
57390;DHT22;43217;52.694;6.214;2022-10-16T10:00:19;15.70;99.90
57390;DHT22;43217;52.694;6.214;2022-10-16T10:02:45;15.70;99.90
57390;DHT22;43217;52.694;6.214;2022-10-16T10:05:29;15.80;99.90
57390;DHT22;43217;52.694;6.214;2022-10-16T10:08:02;15.90;99.90
57390;DHT22;43217;52.694;6.214;2022-10-16T10:10:41;16.00;99.90
57390;DHT22;43217;52.694;6.214;2022-10-16T10:13:21;16.20;99.90
57390;DHT22;43217;52.694;6.214;2022-10-16T10:15:47;16.20;99.90
57390;DHT22;43217;52.694;6.214;2022-10-16T10:18:18;16.30;99.90
57390;DHT22;43217;52.694;6.214;2022-10-16T10:20:45;16.20;99.90
57390;DHT22;43217;52.694;6.214;2022-10-16T10:23:24;16.20;99.90
57390;DHT22;43217;52.694;6.214;2022-10-16T10:46:05;16.30;99.90
57390;DHT22;43217;52.694;6.214;2022-10-16T10:56:51;16.70;99.90
57390;DHT22;43217;52.694;6.214;2022-10-16T11:07:32;16.80;99.90
57390;DHT22;43217;52.694;6.214;2022-10-16T11:10:27;16.80;99.90
57390;DHT22;43217;52.694;6.214;2022-10-16T11:13:04;16.70;99.90
57390;DHT22;43217;52.694;6.214;2022-10-16T11:15:37;16.60;99.90
57390;DHT22;43217;52.694;6.214;2022-10-16T11:18:52;16.60;99.90
57390;DHT22;43217;52.694;6.214;2022-10-16T11:20:56;16.50;99.90
57390;DHT22;43217;52.694;6.214;2022-10-16T11:23:44;16.40;99.90
57390;DHT22;43217;52.694;6.214;2022-10-16T11:26:21;16.50;99.90
57390;DHT22;43217;52.694;6.214;2022-10-16T11:28:50;16.50;99.90
57390;DHT22;43217;52.694;6.214;2022-10-16T11:31:24;16.60;99.90
57390;DHT22;43217;52.694;6.214;2022-10-16T11:36:56;16.80;99.90
57390;DHT22;43217;52.694;6.214;2022-10-16T11:39:30;16.80;99.90
57390;DHT22;43217;52.694;6.214;2022-10-16T11:42:13;16.70;99.90
57390;DHT22;43217;52.694;6.214;2022-10-16T11:47:50;16.80;99.90
57390;DHT22;43217;52.694;6.214;2022-10-16T11:50:39;16.90;99.90
57390;DHT22;43217;52.694;6.214;2022-10-16T11:55:45;17.00;99.90
57390;DHT22;43217;52.694;6.214;2022-10-16T12:06:37;17.00;99.90
57390;DHT22;43217;52.694;6.214;2022-10-16T12:09:05;17.10;99.90
57390;DHT22;43217;52.694;6.214;2022-10-16T12:11:37;17.20;99.90
57390;DHT22;43217;52.694;6.214;2022-10-16T12:19:21;16.90;99.90
57390;DHT22;43217;52.694;6.214;2022-10-16T12:21:48;16.80;99.90
57390;DHT22;43217;52.694;6.214;2022-10-16T12:24:36;16.70;99.90
57390;DHT22;43217;52.694;6.214;2022-10-16T12:27:05;16.70;99.90
57390;DHT22;43217;52.694;6.214;2022-10-16T12:29:40;16.60;99.90
57390;DHT22;43217;52.694;6.214;2022-10-16T12:34:56;16.70;99.90
57390;DHT22;43217;52.694;6.214;2022-10-16T12:37:25;16.60;99.90
57390;DHT22;43217;52.694;6.214;2022-10-16T12:39:53;16.60;99.90
57390;DHT22;43217;52.694;6.214;2022-10-16T12:42:36;16.60;99.90
57390;DHT22;43217;52.694;6.214;2022-10-16T12:47:53;16.60;99.90
57390;DHT22;43217;52.694;6.214;2022-10-16T12:50:38;16.60;99.90
57390;DHT22;43217;52.694;6.214;2022-10-16T12:53:20;16.70;99.90
57390;DHT22;43217;52.694;6.214;2022-10-16T12:56:09;16.80;99.90
57390;DHT22;43217;52.694;6.214;2022-10-16T13:00:03;16.80;99.90
57390;DHT22;43217;52.694;6.214;2022-10-16T13:19:53;17.30;99.90
57390;DHT22;43217;52.694;6.214;2022-10-16T13:25:20;17.20;99.90
57390;DHT22;43217;52.694;6.214;2022-10-16T13:28:21;17.20;99.90
57390;DHT22;43217;52.694;6.214;2022-10-16T13:30:53;17.20;99.90
57390;DHT22;43217;52.694;6.214;2022-10-16T13:33:32;17.20;99.90
57390;DHT22;43217;52.694;6.214;2022-10-16T13:35:58;17.20;99.90
57390;DHT22;43217;52.694;6.214;2022-10-16T13:38:26;17.20;99.90
57390;DHT22;43217;52.694;6.214;2022-10-16T13:46:04;17.20;99.90
57390;DHT22;43217;52.694;6.214;2022-10-16T13:48:34;17.00;99.90
57390;DHT22;43217;52.694;6.214;2022-10-16T13:53:39;16.90;99.90
57390;DHT22;43217;52.694;6.214;2022-10-16T13:56:09;16.90;99.90
57390;DHT22;43217;52.694;6.214;2022-10-16T13:58:36;16.90;99.90
57390;DHT22;43217;52.694;6.214;2022-10-16T14:01:04;16.90;99.90
57390;DHT22;43217;52.694;6.214;2022-10-16T14:03:32;16.90;99.90
57390;DHT22;43217;52.694;6.214;2022-10-16T14:05:59;16.90;99.90
57390;DHT22;43217;52.694;6.214;2022-10-16T14:08:26;16.80;99.90
57390;DHT22;43217;52.694;6.214;2022-10-16T14:10:57;16.80;99.90
57390;DHT22;43217;52.694;6.214;2022-10-16T14:13:32;16.70;99.90
57390;DHT22;43217;52.694;6.214;2022-10-16T14:16:05;16.70;99.90
57390;DHT22;43217;52.694;6.214;2022-10-16T14:18:32;16.70;99.90
57390;DHT22;43217;52.694;6.214;2022-10-16T14:21:06;16.70;99.90
57390;DHT22;43217;52.694;6.214;2022-10-16T14:23:40;16.60;99.90
57390;DHT22;43217;52.694;6.214;2022-10-16T14:28:37;16.60;99.90
57390;DHT22;43217;52.694;6.214;2022-10-16T14:34:02;16.50;99.90
57390;DHT22;43217;52.694;6.214;2022-10-16T14:36:29;16.50;99.90
57390;DHT22;43217;52.694;6.214;2022-10-16T14:39:05;16.50;99.90
57390;DHT22;43217;52.694;6.214;2022-10-16T14:41:41;16.50;99.90
57390;DHT22;43217;52.694;6.214;2022-10-16T14:44:11;16.50;99.90
57390;DHT22;43217;52.694;6.214;2022-10-16T14:46:38;16.40;99.90
57390;DHT22;43217;52.694;6.214;2022-10-16T14:49:13;16.40;99.90
57390;DHT22;43217;52.694;6.214;2022-10-16T14:51:41;16.40;99.90
57390;DHT22;43217;52.694;6.214;2022-10-16T14:54:09;16.40;99.90
57390;DHT22;43217;52.694;6.214;2022-10-16T14:56:55;16.40;99.90
57390;DHT22;43217;52.694;6.214;2022-10-16T14:59:26;16.40;99.90
57390;DHT22;43217;52.694;6.214;2022-10-16T15:01:53;16.40;99.90
57390;DHT22;43217;52.694;6.214;2022-10-16T15:04:19;16.40;99.90
57390;DHT22;43217;52.694;6.214;2022-10-16T15:06:44;16.40;99.90
57390;DHT22;43217;52.694;6.214;2022-10-16T15:09:10;16.40;99.90
57390;DHT22;43217;52.694;6.214;2022-10-16T15:11:36;16.40;99.90
57390;DHT22;43217;52.694;6.214;2022-10-16T15:14:02;16.30;99.90
57390;DHT22;43217;52.694;6.214;2022-10-16T15:16:29;16.30;99.90
57390;DHT22;43217;52.694;6.214;2022-10-16T15:18:55;16.30;99.90
57390;DHT22;43217;52.694;6.214;2022-10-16T15:21:27;16.20;99.90
57390;DHT22;43217;52.694;6.214;2022-10-16T15:23:53;16.20;99.90
57390;DHT22;43217;52.694;6.214;2022-10-16T15:26:18;16.20;99.90
57390;DHT22;43217;52.694;6.214;2022-10-16T15:28:44;16.10;99.90
57390;DHT22;43217;52.694;6.214;2022-10-16T15:31:12;16.10;99.90
57390;DHT22;43217;52.694;6.214;2022-10-16T15:33:37;16.10;99.90
57390;DHT22;43217;52.694;6.214;2022-10-16T15:36:03;16.10;99.90
57390;DHT22;43217;52.694;6.214;2022-10-16T15:38:29;16.00;99.90
57390;DHT22;43217;52.694;6.214;2022-10-16T15:40:55;16.00;99.90
57390;DHT22;43217;52.694;6.214;2022-10-16T15:43:23;15.90;99.90
57390;DHT22;43217;52.694;6.214;2022-10-16T15:46:06;15.90;99.90
57390;DHT22;43217;52.694;6.214;2022-10-16T15:48:33;15.90;99.90
57390;DHT22;43217;52.694;6.214;2022-10-16T15:51:00;15.80;99.90
57390;DHT22;43217;52.694;6.214;2022-10-16T15:53:26;15.80;99.90
57390;DHT22;43217;52.694;6.214;2022-10-16T15:55:51;15.80;99.90
57390;DHT22;43217;52.694;6.214;2022-10-16T15:58:17;15.70;99.90
57390;DHT22;43217;52.694;6.214;2022-10-16T16:00:42;15.70;99.90
57390;DHT22;43217;52.694;6.214;2022-10-16T16:03:08;15.60;99.90
57390;DHT22;43217;52.694;6.214;2022-10-16T16:05:38;15.50;99.90
57390;DHT22;43217;52.694;6.214;2022-10-16T16:08:04;15.50;99.90
57390;DHT22;43217;52.694;6.214;2022-10-16T16:10:30;15.40;99.90
57390;DHT22;43217;52.694;6.214;2022-10-16T16:12:56;15.40;99.90
57390;DHT22;43217;52.694;6.214;2022-10-16T16:15:23;15.30;99.90
57390;DHT22;43217;52.694;6.214;2022-10-16T16:17:49;15.30;99.90
57390;DHT22;43217;52.694;6.214;2022-10-16T16:20:15;15.30;99.90
57390;DHT22;43217;52.694;6.214;2022-10-16T16:22:40;15.20;99.90
57390;DHT22;43217;52.694;6.214;2022-10-16T16:25:06;15.20;99.90
57390;DHT22;43217;52.694;6.214;2022-10-16T16:27:32;15.10;99.90
57390;DHT22;43217;52.694;6.214;2022-10-16T16:30:04;15.10;99.90
57390;DHT22;43217;52.694;6.214;2022-10-16T16:32:30;15.10;99.90
57390;DHT22;43217;52.694;6.214;2022-10-16T16:34:57;15.00;99.90
57390;DHT22;43217;52.694;6.214;2022-10-16T16:37:22;15.00;99.90
57390;DHT22;43217;52.694;6.214;2022-10-16T16:39:48;14.90;99.90
57390;DHT22;43217;52.694;6.214;2022-10-16T16:42:14;14.80;99.90
57390;DHT22;43217;52.694;6.214;2022-10-16T16:44:39;14.80;99.90
57390;DHT22;43217;52.694;6.214;2022-10-16T16:47:24;14.80;99.90
57390;DHT22;43217;52.694;6.214;2022-10-16T16:49:50;14.80;99.90
57390;DHT22;43217;52.694;6.214;2022-10-16T16:52:17;14.70;99.90
57390;DHT22;43217;52.694;6.214;2022-10-16T16:54:43;14.70;99.90
57390;DHT22;43217;52.694;6.214;2022-10-16T16:57:10;14.60;99.90
57390;DHT22;43217;52.694;6.214;2022-10-16T16:59:36;14.60;99.90
57390;DHT22;43217;52.694;6.214;2022-10-16T17:02:02;14.60;99.90
57390;DHT22;43217;52.694;6.214;2022-10-16T17:04:43;14.50;99.90
57390;DHT22;43217;52.694;6.214;2022-10-16T17:07:09;14.40;99.90
57390;DHT22;43217;52.694;6.214;2022-10-16T17:09:37;14.40;99.90
57390;DHT22;43217;52.694;6.214;2022-10-16T17:12:05;14.30;99.90
57390;DHT22;43217;52.694;6.214;2022-10-16T17:14:31;14.30;99.90
57390;DHT22;43217;52.694;6.214;2022-10-16T17:16:57;14.20;99.90
57390;DHT22;43217;52.694;6.214;2022-10-16T17:19:23;14.20;99.90
57390;DHT22;43217;52.694;6.214;2022-10-16T17:21:49;14.20;99.90
57390;DHT22;43217;52.694;6.214;2022-10-16T17:24:15;14.10;99.90
57390;DHT22;43217;52.694;6.214;2022-10-16T17:26:41;14.10;99.90
57390;DHT22;43217;52.694;6.214;2022-10-16T17:29:11;14.00;99.90
57390;DHT22;43217;52.694;6.214;2022-10-16T17:31:36;14.00;99.90
57390;DHT22;43217;52.694;6.214;2022-10-16T17:34:05;13.90;99.90
57390;DHT22;43217;52.694;6.214;2022-10-16T17:36:34;13.80;99.90
57390;DHT22;43217;52.694;6.214;2022-10-16T17:39:05;13.80;99.90
57390;DHT22;43217;52.694;6.214;2022-10-16T17:41:32;13.80;99.90
57390;DHT22;43217;52.694;6.214;2022-10-16T17:43:58;13.80;99.90
57390;DHT22;43217;52.694;6.214;2022-10-16T17:46:24;13.70;99.90